createdAt,value
2019-03-23T00:27:23.815Z,80.04
2019-03-23T00:28:19.235Z,80.76
2019-03-23T00:29:18.510Z,80.96
2019-03-23T00:30:18.571Z,80.55
2019-03-23T00:31:18.655Z,80.76
2019-03-23T00:32:18.597Z,81.30
2019-03-23T00:33:19.759Z,82.33
2019-03-23T00:34:18.669Z,82.43
2019-03-23T00:35:22.010Z,82.37
2019-03-23T00:36:18.445Z,83.05
2019-03-23T00:37:18.627Z,83.40
2019-03-23T00:38:18.508Z,83.26
2019-03-23T00:39:18.540Z,84.53
2019-03-23T00:40:20.123Z,84.32
2019-03-23T00:41:18.610Z,84.32
2019-03-23T00:42:18.454Z,85.08
2019-03-23T00:43:18.807Z,85.04
2019-03-23T00:44:18.633Z,85.49
2019-03-23T00:45:18.601Z,86.00
2019-03-23T00:46:30.522Z,86.21
2019-03-23T00:47:18.420Z,86.21
2019-03-23T00:48:18.404Z,85.86
2019-03-23T00:49:18.294Z,86.32
2019-03-23T00:50:18.627Z,85.86
2019-03-23T00:51:18.334Z,86.52
2019-03-23T00:52:18.498Z,86.93
2019-03-23T00:53:18.513Z,86.21
2019-03-23T00:54:18.321Z,87.04
2019-03-23T00:55:18.229Z,86.77
2019-03-23T00:56:18.712Z,86.77
2019-03-23T00:57:18.257Z,87.28
2019-03-23T00:58:18.203Z,87.28
2019-03-23T00:59:18.170Z,87.59
2019-03-23T01:00:18.173Z,87.79
2019-03-23T01:01:18.153Z,88.82
2019-03-23T01:02:18.150Z,88.96
2019-03-23T01:03:18.164Z,88.66
2019-03-23T01:04:18.115Z,88.80
2019-03-23T01:05:18.149Z,89.77
2019-03-23T01:06:18.239Z,89.85
2019-03-23T01:07:18.124Z,91.60
2019-03-23T01:08:19.730Z,92.47
2019-03-23T01:09:18.054Z,93.40
2019-03-23T01:10:18.085Z,93.71
2019-03-23T01:11:18.197Z,93.40
2019-03-23T01:12:18.200Z,94.12
2019-03-23T01:13:18.934Z,93.71
2019-03-23T01:14:18.578Z,95.05
2019-03-23T01:15:18.470Z,94.43
2019-03-23T01:18:23.562Z,94.68
2019-03-23T01:19:23.544Z,94.68
2019-03-23T01:20:23.486Z,94.64
2019-03-23T01:21:23.514Z,94.84
2019-03-23T01:22:23.418Z,95.77
2019-03-23T01:23:23.377Z,95.36
2019-03-23T01:24:23.315Z,94.95
2019-03-23T01:25:23.293Z,94.84
2019-03-23T01:26:23.294Z,94.80
2019-03-23T01:27:23.304Z,94.84
2019-03-23T01:28:23.322Z,95.10
2019-03-23T01:29:23.308Z,94.59
2019-03-23T01:30:23.262Z,94.18
2019-03-23T01:31:23.224Z,94.59
2019-03-23T01:32:23.211Z,94.28
2019-03-23T01:33:23.215Z,94.64
2019-03-23T01:34:23.255Z,94.70
2019-03-23T01:35:23.192Z,95.00
2019-03-23T01:36:23.178Z,95.00
2019-03-23T01:37:23.164Z,94.08
2019-03-23T01:38:23.163Z,94.59
2019-03-23T01:39:23.143Z,94.08
2019-03-23T01:40:23.258Z,94.23
2019-03-23T01:41:23.134Z,95.00
2019-03-23T01:42:23.094Z,93.50
2019-03-23T01:43:23.109Z,93.91
2019-03-23T01:44:23.077Z,93.71
2019-03-23T01:45:23.108Z,94.12
2019-03-23T01:46:23.062Z,93.60
2019-03-23T01:47:23.050Z,93.81
2019-03-23T01:48:23.027Z,93.91
2019-03-23T01:49:23.047Z,93.71
2019-03-23T01:50:23.077Z,94.02
2019-03-23T01:51:23.011Z,93.40
2019-03-23T01:52:23.144Z,93.71
2019-03-23T01:53:23.021Z,93.50
2019-03-23T01:54:22.965Z,93.40
2019-03-23T01:55:23.002Z,92.72
2019-03-23T01:56:22.948Z,92.47
2019-03-23T01:57:23.018Z,93.09
2019-03-23T01:58:22.937Z,92.88
2019-03-23T01:59:22.918Z,92.88
2019-03-23T02:00:23.334Z,92.47
2019-03-23T02:01:22.895Z,92.37
2019-03-23T02:02:22.917Z,92.41
2019-03-23T02:03:22.875Z,92.51
2019-03-23T02:04:22.904Z,92.72
2019-03-23T02:05:22.851Z,92.82
2019-03-23T02:06:22.953Z,92.66
2019-03-23T02:07:22.831Z,93.59
2019-03-23T02:08:22.826Z,93.28
2019-03-23T02:09:22.843Z,93.07
2019-03-23T02:10:22.789Z,93.18
2019-03-23T02:11:22.783Z,93.38
2019-03-23T02:12:22.821Z,93.28
2019-03-23T02:13:22.763Z,93.18
2019-03-23T02:14:22.763Z,93.79
2019-03-23T02:15:22.747Z,94.10
2019-03-23T02:16:22.744Z,93.28
2019-03-23T02:17:22.753Z,93.49
2019-03-23T02:18:22.745Z,93.49
2019-03-23T02:19:22.687Z,93.49
2019-03-23T02:20:22.679Z,93.38
2019-03-23T02:21:22.670Z,93.59
2019-03-23T02:22:22.712Z,93.38
2019-03-23T02:23:22.653Z,93.69
2019-03-23T02:24:22.634Z,93.43
2019-03-23T02:25:22.645Z,93.69
2019-03-23T02:26:22.611Z,93.59
2019-03-23T02:27:22.642Z,93.49
2019-03-23T02:28:22.668Z,93.53
2019-03-23T02:29:22.597Z,93.01
2019-03-23T02:30:22.582Z,93.63
2019-03-23T02:31:22.558Z,93.49
2019-03-23T02:32:22.605Z,93.22
2019-03-23T02:33:22.601Z,93.32
2019-03-23T02:34:22.577Z,93.32
2019-03-23T02:35:22.518Z,93.63
2019-03-23T02:36:22.621Z,93.01
2019-03-23T02:37:27.626Z,93.53
2019-03-23T02:38:23.520Z,93.53
2019-03-23T02:39:22.514Z,93.63
2019-03-23T02:40:22.460Z,93.53
2019-03-23T02:41:22.454Z,93.84
2019-03-23T02:42:22.450Z,93.22
2019-03-23T02:43:22.472Z,93.63
2019-03-23T02:44:22.461Z,94.35
2019-03-23T02:45:22.436Z,94.04
2019-03-23T02:46:22.401Z,93.43
2019-03-23T02:47:22.383Z,93.79
2019-03-23T02:48:22.429Z,92.91
2019-03-23T02:49:22.366Z,92.80
2019-03-23T02:50:22.359Z,93.01
2019-03-23T02:51:22.360Z,93.12
2019-03-23T02:52:22.447Z,92.50
2019-03-23T02:53:22.359Z,93.12
2019-03-23T02:54:22.358Z,92.40
2019-03-23T02:55:22.298Z,93.12
2019-03-23T02:56:22.296Z,93.32
2019-03-23T02:57:22.283Z,93.43
2019-03-23T02:58:22.326Z,92.70
2019-03-23T02:59:22.301Z,93.26
2019-03-23T03:00:22.250Z,93.68
2019-03-23T03:01:22.242Z,93.78
2019-03-23T03:02:22.219Z,94.75
2019-03-23T03:03:22.238Z,94.65
2019-03-23T03:04:22.284Z,94.60
2019-03-23T03:05:22.232Z,94.50
2019-03-23T03:06:22.200Z,94.15
2019-03-23T03:07:22.173Z,93.43
2019-03-23T03:08:22.161Z,93.63
2019-03-23T03:09:22.211Z,93.22
2019-03-23T03:10:22.194Z,92.60
2019-03-23T03:11:22.157Z,92.91
2019-03-23T03:12:22.171Z,93.16
2019-03-23T03:13:22.117Z,93.37
2019-03-23T03:14:22.137Z,93.37
2019-03-23T03:15:22.131Z,94.40
2019-03-23T03:16:22.067Z,93.98
2019-03-23T03:17:22.084Z,94.92
2019-03-23T03:18:22.084Z,93.84
2019-03-23T03:19:22.054Z,93.98
2019-03-23T03:20:22.158Z,94.19
2019-03-23T03:21:22.021Z,93.47
2019-03-23T03:22:22.019Z,93.88
2019-03-23T03:23:21.996Z,94.29
2019-03-23T03:24:21.984Z,94.71
2019-03-23T03:25:22.020Z,93.88
2019-03-23T03:26:21.959Z,94.65
2019-03-23T03:27:21.989Z,94.75
2019-03-23T03:28:21.979Z,94.13
2019-03-23T03:29:21.919Z,94.71
2019-03-23T03:30:22.010Z,94.85
2019-03-23T03:31:22.032Z,95.22
2019-03-23T03:32:21.899Z,95.43
2019-03-23T03:33:21.882Z,94.50
2019-03-23T03:34:21.913Z,94.71
2019-03-23T03:35:21.867Z,94.71
2019-03-23T03:36:21.907Z,95.22
2019-03-23T03:37:21.832Z,95.32
2019-03-23T03:38:21.851Z,94.92
2019-03-23T03:39:21.816Z,94.60
2019-03-23T03:40:21.854Z,94.29
2019-03-23T03:41:21.796Z,94.81
2019-03-23T03:42:21.869Z,94.15
2019-03-23T03:43:21.804Z,94.97
2019-03-23T03:44:21.773Z,94.19
2019-03-23T03:45:21.746Z,93.88
2019-03-23T03:46:21.768Z,93.94
2019-03-23T03:47:21.796Z,94.19
2019-03-23T03:48:21.786Z,93.63
2019-03-23T03:49:21.801Z,94.15
2019-03-23T03:50:21.701Z,93.53
2019-03-23T03:51:21.683Z,93.53
2019-03-23T03:52:22.715Z,93.49
2019-03-23T03:53:21.668Z,92.97
2019-03-23T03:54:21.708Z,93.12
2019-03-23T03:55:21.664Z,92.50
2019-03-23T03:56:21.650Z,93.01
2019-03-23T03:57:21.630Z,93.53
2019-03-23T03:58:21.794Z,93.32
2019-03-23T03:59:21.686Z,93.73
2019-03-23T04:00:21.639Z,93.53
2019-03-23T04:01:21.667Z,92.91
2019-03-23T04:02:21.605Z,93.01
2019-03-23T04:03:21.833Z,92.91
2019-03-23T04:04:21.549Z,92.91
2019-03-23T04:05:21.609Z,92.50
2019-03-23T04:06:21.673Z,92.86
2019-03-23T04:07:21.637Z,92.50
2019-03-23T04:08:21.697Z,92.91
2019-03-23T04:09:21.637Z,93.53
2019-03-23T04:10:21.551Z,93.49
2019-03-23T04:11:21.558Z,93.84
2019-03-23T04:12:21.542Z,93.12
2019-03-23T04:13:21.557Z,93.38
2019-03-23T04:14:21.496Z,93.73
2019-03-23T04:15:21.541Z,93.07
2019-03-23T04:16:21.469Z,92.40
2019-03-23T04:17:21.422Z,92.40
2019-03-23T04:18:21.481Z,92.70
2019-03-23T04:19:21.514Z,93.63
2019-03-23T04:20:21.470Z,93.01
2019-03-23T04:21:21.379Z,92.91
2019-03-23T04:22:21.467Z,92.66
2019-03-23T04:23:21.388Z,92.66
2019-03-23T04:24:21.508Z,92.97
2019-03-23T04:25:21.448Z,92.46
2019-03-23T04:26:21.336Z,92.35
2019-03-23T04:27:21.433Z,92.50
2019-03-23T04:28:21.326Z,92.66
2019-03-23T04:29:21.406Z,93.53
2019-03-23T04:30:21.311Z,92.86
2019-03-23T04:31:21.294Z,92.80
2019-03-23T04:32:21.255Z,91.94
2019-03-23T04:33:21.299Z,92.60
2019-03-23T04:34:21.241Z,92.25
2019-03-23T04:35:21.274Z,92.55
2019-03-23T04:36:21.210Z,92.55
2019-03-23T04:37:21.191Z,92.35
2019-03-23T04:38:22.926Z,91.52
2019-03-23T04:39:21.250Z,91.32
2019-03-23T04:40:21.158Z,92.08
2019-03-23T04:41:21.175Z,92.04
2019-03-23T04:42:21.120Z,92.55
2019-03-23T04:43:21.157Z,92.04
2019-03-23T04:44:21.121Z,92.55
2019-03-23T04:45:21.200Z,92.35
2019-03-23T04:46:21.123Z,92.76
2019-03-23T04:47:21.185Z,92.76
2019-03-23T04:48:21.175Z,92.14
2019-03-23T04:49:21.139Z,91.83
2019-03-23T04:50:21.115Z,92.14
2019-03-23T04:51:21.048Z,92.04
2019-03-23T04:52:21.188Z,91.94
2019-03-23T04:53:21.422Z,91.63
2019-03-23T04:54:21.049Z,92.04
2019-03-23T04:55:21.074Z,92.14
2019-03-23T04:56:21.240Z,92.04
2019-03-23T04:57:21.027Z,92.86
2019-03-23T04:58:21.070Z,92.46
2019-03-23T04:59:21.059Z,92.25
2019-03-23T05:00:21.060Z,92.25
2019-03-23T05:01:20.947Z,92.04
2019-03-23T05:02:20.923Z,91.63
2019-03-23T05:03:21.009Z,92.04
2019-03-23T05:04:20.935Z,92.04
2019-03-23T05:05:20.999Z,92.14
2019-03-23T05:06:20.919Z,91.11
2019-03-23T05:07:20.891Z,91.22
2019-03-23T05:08:20.868Z,91.42
2019-03-23T05:09:20.894Z,91.42
2019-03-23T05:10:20.814Z,91.63
2019-03-23T05:11:20.846Z,91.11
2019-03-23T05:12:20.941Z,91.63
2019-03-23T05:13:20.784Z,91.48
2019-03-23T05:14:20.780Z,91.52
2019-03-23T05:15:20.833Z,91.63
2019-03-23T05:16:20.852Z,91.48
2019-03-23T05:17:20.761Z,91.58
2019-03-23T05:18:20.765Z,91.48
2019-03-23T05:19:20.718Z,91.42
2019-03-23T05:20:20.834Z,91.63
2019-03-23T05:21:20.711Z,91.63
2019-03-23T05:22:20.777Z,91.73
2019-03-23T05:23:20.713Z,91.58
2019-03-23T05:24:20.759Z,91.63
2019-03-23T05:25:20.675Z,91.48
2019-03-23T05:26:20.662Z,91.48
2019-03-23T05:27:20.712Z,91.28
2019-03-23T05:28:20.651Z,91.69
2019-03-23T05:29:20.668Z,90.66
2019-03-23T05:30:20.613Z,90.35
2019-03-23T05:31:20.599Z,90.66
2019-03-23T05:32:20.616Z,90.66
2019-03-23T05:33:20.579Z,90.76
2019-03-23T05:34:21.207Z,90.86
2019-03-23T05:35:20.576Z,90.66
2019-03-23T05:36:20.582Z,90.97
2019-03-23T05:37:20.603Z,91.07
2019-03-23T05:38:20.678Z,90.86
2019-03-23T05:39:20.591Z,90.97
2019-03-23T05:40:20.525Z,90.76
2019-03-23T05:41:20.509Z,90.45
2019-03-23T05:42:20.632Z,90.45
2019-03-23T05:43:20.542Z,90.86
2019-03-23T05:44:20.485Z,90.55
2019-03-23T05:45:20.490Z,90.35
2019-03-23T05:46:20.525Z,90.76
2019-03-23T05:47:20.594Z,90.35
2019-03-23T05:48:20.430Z,90.31
2019-03-23T05:49:20.410Z,90.25
2019-03-23T05:50:20.393Z,90.76
2019-03-23T05:51:20.557Z,90.25
2019-03-23T05:52:20.435Z,90.14
2019-03-23T05:53:21.204Z,90.45
2019-03-23T05:54:20.348Z,90.72
2019-03-23T05:55:20.365Z,90.72
2019-03-23T05:56:20.319Z,90.76
2019-03-23T05:57:20.313Z,90.66
2019-03-23T05:58:20.331Z,90.35
2019-03-23T05:59:20.371Z,90.20
2019-03-23T06:00:20.303Z,90.10
2019-03-23T06:01:20.282Z,89.79
2019-03-23T06:02:20.260Z,89.89
2019-03-23T06:03:20.297Z,89.69
2019-03-23T06:04:20.278Z,90.10
2019-03-23T06:05:20.231Z,89.69
2019-03-23T06:06:20.215Z,89.89
2019-03-23T06:07:20.227Z,89.79
2019-03-23T06:08:20.203Z,89.89
2019-03-23T06:09:20.216Z,89.89
2019-03-23T06:10:20.194Z,89.69
2019-03-23T06:11:20.151Z,89.79
2019-03-23T06:12:20.139Z,90.20
2019-03-23T06:13:20.127Z,89.79
2019-03-23T06:14:20.178Z,90.10
2019-03-23T06:15:20.104Z,90.10
2019-03-23T06:16:20.133Z,89.79
2019-03-23T06:17:20.107Z,89.79
2019-03-23T06:18:20.689Z,90.00
2019-03-23T06:19:20.107Z,90.10
2019-03-23T06:20:20.049Z,89.23
2019-03-23T06:21:20.083Z,90.31
2019-03-23T06:22:20.037Z,90.10
2019-03-23T06:23:20.027Z,90.00
2019-03-23T06:24:20.076Z,89.69
2019-03-23T06:25:19.999Z,90.10
2019-03-23T06:26:19.981Z,89.58
2019-03-23T06:27:20.011Z,89.48
2019-03-23T06:28:20.060Z,89.44
2019-03-23T06:29:20.099Z,89.34
2019-03-23T06:30:20.028Z,88.86
2019-03-23T06:31:20.000Z,88.72
2019-03-23T06:32:20.844Z,89.34
2019-03-23T06:33:19.968Z,88.82
2019-03-23T06:34:19.972Z,88.92
2019-03-23T06:35:19.893Z,89.23
2019-03-23T06:36:19.882Z,88.82
2019-03-23T06:37:19.950Z,88.82
2019-03-23T06:38:19.882Z,88.92
2019-03-23T06:39:19.888Z,88.51
2019-03-23T06:40:19.852Z,88.72
2019-03-23T06:41:19.835Z,88.62
2019-03-23T06:42:19.816Z,88.72
2019-03-23T06:43:19.823Z,89.03
2019-03-23T06:44:19.828Z,88.82
2019-03-23T06:45:19.800Z,88.57
2019-03-23T06:46:19.767Z,88.68
2019-03-23T06:47:19.758Z,88.57
2019-03-23T06:48:19.759Z,88.47
2019-03-23T06:49:19.793Z,87.75
2019-03-23T06:50:19.731Z,88.06
2019-03-23T06:51:19.761Z,87.65
2019-03-23T06:52:19.732Z,87.65
2019-03-23T06:53:19.741Z,88.68
2019-03-23T06:54:19.769Z,88.47
2019-03-23T06:55:19.707Z,88.23
2019-03-23T06:56:19.762Z,87.30
2019-03-23T06:57:19.673Z,87.92
2019-03-23T06:58:19.688Z,87.51
2019-03-23T06:59:19.738Z,87.40
2019-03-23T07:00:19.735Z,87.51
2019-03-23T07:01:19.650Z,87.92
2019-03-23T07:02:19.612Z,86.88
2019-03-23T07:03:19.666Z,86.74
2019-03-23T07:04:19.695Z,86.58
2019-03-23T07:05:19.662Z,86.16
2019-03-23T07:06:19.627Z,86.13
2019-03-23T07:07:19.558Z,86.27
2019-03-23T07:08:19.554Z,87.30
2019-03-23T07:09:19.610Z,87.09
2019-03-23T07:10:19.623Z,86.47
2019-03-23T07:11:19.576Z,86.43
2019-03-23T07:12:19.518Z,87.09
2019-03-23T07:13:19.530Z,86.47
2019-03-23T07:14:20.190Z,86.33
2019-03-23T07:15:20.616Z,87.05
2019-03-23T07:16:19.466Z,86.64
2019-03-23T07:17:19.454Z,86.33
2019-03-23T07:18:19.451Z,86.54
2019-03-23T07:19:21.237Z,86.64
2019-03-23T07:20:19.430Z,86.43
2019-03-23T07:21:19.406Z,86.43
2019-03-23T07:22:19.383Z,86.64
2019-03-23T07:23:19.479Z,86.64
2019-03-23T07:24:19.450Z,86.64
2019-03-23T07:25:19.454Z,86.02
2019-03-23T07:26:19.421Z,86.74
2019-03-23T07:27:19.458Z,86.02
2019-03-23T07:28:19.438Z,86.54
2019-03-23T07:29:19.325Z,86.54
2019-03-23T07:30:19.510Z,87.05
2019-03-23T07:31:19.315Z,86.50
2019-03-23T07:32:19.337Z,84.79
2019-03-23T07:33:19.325Z,85.30
2019-03-23T07:34:19.290Z,85.20
2019-03-23T07:35:19.325Z,85.78
2019-03-23T07:36:19.296Z,86.40
2019-03-23T07:37:19.289Z,85.57
2019-03-23T07:38:19.267Z,84.95
2019-03-23T07:39:27.205Z,86.19
2019-03-23T07:40:22.313Z,86.29
2019-03-23T07:41:19.249Z,84.95
2019-03-23T07:42:19.195Z,84.95
2019-03-23T07:43:19.223Z,84.75
2019-03-23T07:44:19.179Z,84.71
2019-03-23T07:45:19.704Z,84.64
2019-03-23T07:46:19.159Z,84.50
2019-03-23T07:47:19.247Z,84.61
2019-03-23T07:48:19.135Z,84.71
2019-03-23T07:49:19.217Z,84.50
2019-03-23T07:50:19.130Z,84.61
2019-03-23T07:51:19.212Z,83.68
2019-03-23T07:52:19.072Z,84.30
2019-03-23T07:53:19.198Z,83.54
2019-03-23T07:54:19.194Z,83.03
2019-03-23T07:55:19.207Z,83.68
2019-03-23T07:56:19.013Z,83.99
2019-03-23T07:57:19.060Z,83.37
2019-03-23T07:58:19.027Z,84.09
2019-03-23T07:59:18.983Z,83.58
2019-03-23T08:00:20.851Z,84.81
2019-03-23T08:01:18.978Z,83.17
2019-03-23T08:02:18.979Z,83.17
2019-03-23T08:03:19.021Z,83.13
2019-03-23T08:04:18.964Z,82.92
2019-03-23T08:05:19.003Z,83.64
2019-03-23T08:06:18.905Z,83.33
2019-03-23T08:07:18.898Z,83.64
2019-03-23T08:08:18.962Z,83.13
2019-03-23T08:09:20.705Z,83.44
2019-03-23T08:10:19.766Z,83.54
2019-03-23T08:11:18.890Z,82.92
2019-03-23T08:12:18.905Z,82.71
2019-03-23T08:13:19.085Z,83.44
2019-03-23T08:14:18.875Z,83.33
2019-03-23T08:15:18.902Z,83.61
2019-03-23T08:16:18.829Z,82.68
2019-03-23T08:17:18.863Z,82.33
2019-03-23T08:18:18.787Z,81.71
2019-03-23T08:19:18.777Z,81.82
2019-03-23T08:20:18.839Z,82.47
2019-03-23T08:21:18.796Z,82.17
2019-03-23T08:22:18.734Z,82.06
2019-03-23T08:23:18.707Z,82.27
2019-03-23T08:24:18.720Z,82.06
2019-03-23T08:25:18.794Z,81.76
2019-03-23T08:26:18.711Z,81.96
2019-03-23T08:27:18.719Z,82.27
2019-03-23T08:28:18.736Z,82.06
2019-03-23T08:29:18.694Z,82.33
2019-03-23T08:30:18.759Z,81.71
2019-03-23T08:31:18.653Z,81.71
2019-03-23T08:32:18.677Z,82.13
2019-03-23T08:33:18.692Z,81.27
2019-03-23T08:34:18.734Z,80.82
2019-03-23T08:35:18.734Z,79.49
2019-03-23T08:36:18.632Z,79.49
2019-03-23T08:37:18.568Z,79.69
2019-03-23T08:38:18.544Z,79.69
2019-03-23T08:39:18.548Z,79.49
2019-03-23T08:40:18.620Z,79.38
2019-03-23T08:41:18.546Z,79.59
2019-03-23T08:42:18.531Z,79.80
2019-03-23T08:43:18.494Z,80.10
2019-03-23T08:44:18.485Z,79.69
2019-03-23T08:45:18.529Z,79.69
2019-03-23T08:46:18.524Z,78.94
2019-03-23T08:47:18.484Z,78.83
2019-03-23T08:48:18.431Z,79.28
2019-03-23T08:49:18.435Z,79.59
2019-03-23T08:50:18.462Z,79.69
2019-03-23T08:51:18.432Z,79.69
2019-03-23T08:52:18.458Z,80.21
2019-03-23T08:53:18.373Z,79.18
2019-03-23T08:54:18.374Z,79.24
2019-03-23T08:55:18.432Z,79.66
2019-03-23T08:56:18.410Z,78.83
2019-03-23T08:57:18.326Z,78.94
2019-03-23T08:58:18.313Z,79.90
2019-03-23T08:59:18.318Z,79.93
2019-03-23T09:00:18.344Z,80.55
2019-03-23T09:01:18.322Z,80.45
2019-03-23T09:02:18.275Z,80.62
2019-03-23T09:03:18.350Z,80.00
2019-03-23T09:04:18.262Z,79.80
2019-03-23T09:05:18.280Z,79.45
2019-03-23T09:06:18.275Z,79.38
2019-03-23T09:07:18.295Z,79.14
2019-03-23T09:08:18.615Z,78.90
2019-03-23T09:09:18.206Z,78.86
2019-03-23T09:10:18.236Z,78.53
2019-03-23T09:11:20.678Z,79.59
2019-03-23T09:12:18.193Z,80.21
2019-03-23T09:13:18.252Z,80.21
2019-03-23T09:14:18.183Z,79.80
2019-03-23T09:15:18.137Z,80.35
2019-03-23T09:16:18.163Z,80.62
2019-03-23T09:17:18.154Z,80.41
2019-03-23T09:18:18.157Z,80.86
2019-03-23T09:19:18.130Z,81.06
2019-03-23T09:20:18.098Z,81.23
2019-03-23T09:21:18.107Z,80.72
2019-03-23T09:22:18.097Z,80.47
2019-03-23T09:23:18.041Z,79.55
2019-03-23T09:24:18.038Z,79.90
2019-03-23T09:25:18.066Z,79.96
2019-03-23T09:26:18.058Z,79.96
2019-03-23T09:27:18.007Z,79.96
2019-03-23T09:28:18.013Z,79.80
2019-03-23T09:29:17.997Z,81.06
2019-03-23T09:30:17.979Z,81.34
2019-03-23T09:31:18.059Z,80.92
2019-03-23T09:32:17.946Z,80.41
2019-03-23T09:33:17.946Z,80.68
2019-03-23T09:34:17.935Z,79.52
2019-03-23T09:35:17.926Z,78.56
2019-03-23T09:36:17.942Z,77.70
2019-03-23T09:37:17.908Z,77.94
2019-03-23T09:38:17.919Z,78.90
2019-03-23T09:39:17.892Z,78.90
2019-03-23T09:40:17.875Z,79.17
2019-03-23T09:41:17.888Z,77.29
2019-03-23T09:42:17.930Z,77.60
2019-03-23T09:43:17.866Z,77.29
2019-03-23T09:44:17.835Z,76.84
2019-03-23T09:45:17.852Z,76.75
2019-03-23T09:46:17.837Z,76.95
2019-03-23T09:47:17.823Z,76.43
2019-03-23T09:48:17.769Z,76.61
2019-03-23T09:49:17.761Z,77.94
2019-03-23T09:50:17.788Z,77.50
2019-03-23T09:51:17.800Z,76.50
2019-03-23T09:52:17.759Z,75.07
2019-03-23T09:53:17.757Z,75.99
2019-03-23T09:54:17.708Z,75.79
2019-03-23T09:55:17.698Z,76.40
2019-03-23T09:56:17.738Z,75.99
2019-03-23T09:57:17.721Z,75.17
2019-03-23T09:58:17.670Z,76.54
2019-03-23T09:59:17.650Z,77.09
2019-03-23T10:00:17.634Z,76.71
2019-03-23T10:01:17.660Z,76.47
2019-03-23T10:02:17.618Z,76.54
2019-03-23T10:03:17.635Z,76.23
2019-03-23T10:04:17.631Z,76.06
2019-03-23T10:05:17.581Z,74.52
2019-03-23T10:06:17.612Z,74.52
2019-03-23T10:07:17.566Z,73.98
2019-03-23T10:08:17.562Z,74.29
2019-03-23T10:09:17.544Z,73.27
2019-03-23T10:10:22.140Z,73.33
2019-03-23T10:11:17.575Z,73.57
2019-03-23T10:12:17.532Z,73.98
2019-03-23T10:13:17.510Z,73.77
2019-03-23T10:14:17.491Z,73.57
2019-03-23T10:15:17.473Z,74.39
2019-03-23T10:16:17.497Z,73.36
2019-03-23T10:17:17.455Z,72.82
2019-03-23T10:18:17.465Z,72.28
2019-03-23T10:19:17.521Z,70.89
2019-03-23T10:20:17.452Z,69.96
2019-03-23T10:21:17.457Z,70.37
2019-03-23T10:22:17.420Z,71.63
2019-03-23T10:23:17.391Z,72.79
2019-03-23T10:24:17.374Z,74.02
2019-03-23T10:25:17.370Z,75.21
2019-03-23T10:26:17.402Z,75.00
2019-03-23T10:27:17.341Z,75.96
2019-03-23T10:28:17.392Z,76.16
2019-03-23T10:29:17.365Z,76.67
2019-03-23T10:30:17.327Z,76.20
2019-03-23T10:31:17.356Z,76.71
2019-03-23T10:32:17.350Z,76.75
2019-03-23T10:33:17.314Z,77.60
2019-03-23T10:34:17.304Z,77.56
2019-03-23T10:35:17.265Z,78.42
2019-03-23T10:36:17.249Z,78.38
2019-03-23T10:37:17.277Z,78.28
2019-03-23T10:38:17.213Z,76.95
2019-03-23T10:39:17.204Z,78.04
2019-03-23T10:40:17.212Z,77.32
2019-03-23T10:41:17.190Z,76.88
2019-03-23T10:42:17.243Z,75.92
2019-03-23T10:43:17.170Z,75.92
2019-03-23T10:44:17.213Z,75.75
2019-03-23T10:45:17.136Z,77.36
2019-03-23T10:46:17.132Z,79.03
2019-03-23T10:47:17.132Z,78.79
2019-03-23T10:48:17.200Z,79.41
2019-03-23T10:49:17.103Z,78.83
2019-03-23T10:50:17.182Z,78.17
2019-03-23T10:51:17.150Z,78.04
2019-03-23T10:52:17.101Z,77.08
2019-03-23T10:53:23.017Z,76.81
2019-03-23T10:54:18.103Z,77.12
2019-03-23T10:55:17.089Z,77.36
2019-03-23T10:56:17.027Z,78.59
2019-03-23T10:57:17.053Z,78.55
2019-03-23T10:58:17.117Z,77.73
2019-03-23T10:59:17.032Z,77.73
2019-03-23T11:00:16.984Z,76.78
2019-03-23T11:01:16.973Z,78.04
2019-03-23T11:02:17.024Z,77.53
2019-03-23T11:03:16.988Z,77.42
2019-03-23T11:04:16.932Z,78.28
2019-03-23T11:05:16.949Z,78.34
2019-03-23T11:06:16.948Z,78.04
2019-03-23T11:07:16.915Z,77.83
2019-03-23T11:08:17.077Z,77.63
2019-03-23T11:09:16.876Z,78.08
2019-03-23T11:10:16.879Z,79.30
2019-03-23T11:11:16.846Z,79.30
2019-03-23T11:12:16.925Z,78.59
2019-03-23T11:13:16.899Z,78.24
2019-03-23T11:14:16.828Z,77.42
2019-03-23T11:15:16.810Z,76.78
2019-03-23T11:16:16.799Z,76.53
2019-03-23T11:17:16.835Z,76.23
2019-03-23T11:18:17.715Z,75.96
2019-03-23T11:19:16.759Z,76.64
2019-03-23T11:20:16.811Z,76.37
2019-03-23T11:21:16.830Z,76.67
2019-03-23T11:22:16.722Z,76.88
2019-03-23T11:23:16.769Z,76.53
2019-03-23T11:24:16.764Z,76.09
2019-03-23T11:25:16.709Z,75.17
2019-03-23T11:26:16.684Z,74.76
2019-03-23T11:27:16.724Z,75.71
2019-03-23T11:28:16.718Z,74.46
2019-03-23T11:29:16.671Z,74.35
2019-03-23T11:30:16.688Z,75.89
2019-03-23T11:31:16.674Z,74.87
2019-03-23T11:32:16.621Z,75.00
2019-03-23T11:33:16.652Z,75.82
2019-03-23T11:34:18.077Z,75.68
2019-03-23T11:35:16.667Z,74.56
2019-03-23T11:36:16.579Z,75.00
2019-03-23T11:37:16.676Z,75.58
2019-03-23T11:38:16.613Z,74.22
2019-03-23T11:39:16.552Z,73.67
2019-03-23T11:40:16.552Z,73.27
2019-03-23T11:41:16.523Z,74.42
2019-03-23T11:42:16.511Z,74.93
2019-03-23T11:43:16.607Z,73.91
2019-03-23T11:44:16.548Z,73.67
2019-03-23T11:45:16.481Z,73.57
2019-03-23T11:46:17.108Z,74.01
2019-03-23T11:47:16.524Z,75.51
2019-03-23T11:48:16.538Z,76.43
2019-03-23T11:49:16.447Z,76.53
2019-03-23T11:50:16.426Z,76.23
2019-03-23T11:51:16.623Z,76.29
2019-03-23T11:52:16.414Z,74.97
2019-03-23T11:53:16.447Z,74.93
2019-03-23T11:54:16.392Z,75.04
2019-03-23T11:55:16.376Z,74.01
2019-03-23T11:56:16.369Z,74.01
2019-03-23T11:57:16.356Z,73.94
2019-03-23T11:58:16.388Z,74.87
2019-03-23T11:59:16.377Z,74.05
2019-03-23T12:00:16.324Z,75.65
2019-03-23T12:01:16.310Z,74.49
2019-03-23T12:02:16.306Z,73.88
2019-03-23T12:03:16.326Z,74.08
2019-03-23T12:04:16.279Z,73.84
2019-03-23T12:05:16.364Z,73.88
2019-03-23T12:06:16.253Z,73.98
2019-03-23T12:07:16.241Z,73.67
2019-03-23T12:08:17.247Z,73.77
2019-03-23T12:09:16.226Z,74.93
2019-03-23T12:10:16.205Z,74.52
2019-03-23T12:11:16.216Z,75.95
2019-03-23T12:12:16.207Z,75.58
2019-03-23T12:13:16.188Z,74.97
2019-03-23T12:14:16.218Z,75.92
2019-03-23T12:15:16.159Z,76.12
2019-03-23T12:16:16.188Z,76.53
2019-03-23T12:17:16.181Z,76.33
2019-03-23T12:18:16.123Z,77.25
2019-03-23T12:19:16.201Z,76.74
2019-03-23T12:20:16.101Z,76.12
2019-03-23T12:21:16.089Z,76.53
2019-03-23T12:22:16.092Z,76.74
2019-03-23T12:23:16.062Z,76.23
2019-03-23T12:24:16.102Z,76.94
2019-03-23T12:25:16.048Z,76.94
2019-03-23T12:26:16.087Z,76.74
2019-03-23T12:27:16.019Z,76.84
2019-03-23T12:28:16.010Z,76.74
2019-03-23T12:29:16.045Z,76.43
2019-03-23T12:30:15.988Z,77.70
2019-03-23T12:31:15.994Z,77.35
2019-03-23T12:32:15.967Z,76.94
2019-03-23T12:33:16.000Z,76.74
2019-03-23T12:34:16.743Z,77.35
2019-03-23T12:35:15.935Z,76.84
2019-03-23T12:36:15.922Z,77.56
2019-03-23T12:37:15.951Z,77.15
2019-03-23T12:38:15.914Z,76.50
2019-03-23T12:39:15.944Z,76.26
2019-03-23T12:40:15.890Z,75.48
2019-03-23T12:41:22.994Z,76.06
2019-03-23T12:42:16.870Z,75.68
2019-03-23T12:43:15.865Z,75.89
2019-03-23T12:44:15.973Z,76.70
2019-03-23T12:45:15.868Z,76.40
2019-03-23T12:46:15.817Z,75.85
2019-03-23T12:47:15.840Z,75.85
2019-03-23T12:48:15.793Z,75.75
2019-03-23T12:49:16.810Z,75.99
2019-03-23T12:50:15.806Z,76.60
2019-03-23T12:51:15.796Z,75.48
2019-03-23T12:52:15.765Z,75.68
2019-03-23T12:53:15.770Z,74.83
2019-03-23T12:54:15.881Z,75.00
2019-03-23T12:55:15.712Z,73.54
2019-03-23T12:56:15.710Z,73.67
2019-03-23T12:57:15.753Z,74.08
2019-03-23T12:58:15.682Z,74.79
2019-03-23T12:59:15.728Z,75.75
2019-03-23T13:00:15.657Z,75.85
2019-03-23T13:01:15.684Z,76.02
2019-03-23T13:02:15.635Z,75.00
2019-03-23T13:03:15.641Z,74.49
2019-03-23T13:04:17.250Z,73.64
2019-03-23T13:05:15.604Z,72.21
2019-03-23T13:06:15.592Z,73.67
2019-03-23T13:07:15.582Z,73.84
2019-03-23T13:08:15.608Z,73.64
2019-03-23T13:09:15.603Z,73.43
2019-03-23T13:10:15.586Z,73.98
2019-03-23T13:11:23.105Z,73.67
2019-03-23T13:12:15.521Z,74.15
2019-03-23T13:13:15.514Z,73.77
2019-03-23T13:14:15.540Z,74.38
2019-03-23T13:15:15.504Z,73.84
2019-03-23T13:16:15.501Z,73.67
2019-03-23T13:17:15.509Z,73.67
2019-03-23T13:18:15.469Z,74.29
2019-03-23T13:19:15.522Z,73.74
2019-03-23T13:20:15.641Z,73.98
2019-03-23T13:21:15.437Z,73.33